createdAt,value
2019-02-17T00:00:41.569Z,214.42
2019-02-17T00:01:41.834Z,214.48
2019-02-17T00:02:42.020Z,214.48
2019-02-17T00:03:42.250Z,214.47
2019-02-17T00:04:42.471Z,214.49
2019-02-17T00:05:42.712Z,214.49
2019-02-17T00:06:42.916Z,214.52
2019-02-17T00:07:43.153Z,214.54
2019-02-17T00:08:43.393Z,214.54
2019-02-17T00:09:43.640Z,214.50
2019-02-17T00:10:44.206Z,214.49
2019-02-17T00:11:44.401Z,214.46
2019-02-17T00:12:44.640Z,214.51
2019-02-17T00:13:44.888Z,214.49
2019-02-17T00:14:45.111Z,214.54
2019-02-17T00:15:45.362Z,214.49
2019-02-17T00:16:45.581Z,214.48
2019-02-17T00:17:45.844Z,214.61
2019-02-17T00:18:46.146Z,214.60
2019-02-17T00:19:46.296Z,214.52
2019-02-17T00:20:46.779Z,214.56
2019-02-17T00:21:46.763Z,214.52
2019-02-17T00:22:47.027Z,214.51
2019-02-17T00:23:47.242Z,214.54
2019-02-17T00:24:47.479Z,214.60
2019-02-17T00:25:47.748Z,214.54
2019-02-17T00:26:48.054Z,214.60
2019-02-17T00:27:48.207Z,214.58
2019-02-17T00:28:48.440Z,214.65
2019-02-17T00:29:48.680Z,214.58
2019-02-17T00:30:48.927Z,214.64
2019-02-17T00:31:49.154Z,214.63
2019-02-17T00:32:49.421Z,214.70
2019-02-17T00:33:49.652Z,214.72
2019-02-17T00:34:49.923Z,214.77
2019-02-17T00:35:50.090Z,214.79
2019-02-17T00:36:50.329Z,214.83
2019-02-17T00:37:50.587Z,214.77
2019-02-17T00:38:50.825Z,214.79
2019-02-17T00:39:51.029Z,214.91
2019-02-17T00:40:51.290Z,214.90
2019-02-17T00:41:51.519Z,214.83
2019-02-17T00:42:51.823Z,214.86
2019-02-17T00:43:51.924Z,214.86
2019-02-17T00:44:52.155Z,214.86
2019-02-17T00:45:52.393Z,214.86
2019-02-17T00:46:52.615Z,214.90
2019-02-17T00:47:52.838Z,214.89
2019-02-17T00:48:53.122Z,214.94
2019-02-17T00:49:53.308Z,214.98
2019-02-17T00:50:53.829Z,214.94
2019-02-17T00:51:53.883Z,214.89
2019-02-17T00:52:54.092Z,214.97
2019-02-17T00:53:54.362Z,214.83
2019-02-17T00:54:54.565Z,214.96
2019-02-17T00:55:54.809Z,214.94
2019-02-17T00:56:55.044Z,214.90
2019-02-17T00:57:55.301Z,214.94
2019-02-17T00:58:55.564Z,214.97
2019-02-17T00:59:55.863Z,214.97
2019-02-17T01:00:57.392Z,215.01
2019-02-17T01:01:56.244Z,215.01
2019-02-17T01:02:56.481Z,214.90
2019-02-17T01:03:56.750Z,214.94
2019-02-17T01:04:56.945Z,264.10
2019-02-17T01:05:57.188Z,264.12
2019-02-17T01:06:57.409Z,264.97
2019-02-17T01:07:57.775Z,264.47
2019-02-17T01:08:57.962Z,264.12
2019-02-17T01:09:58.146Z,263.85
2019-02-17T01:10:58.379Z,265.43
2019-02-17T01:11:58.622Z,264.94
2019-02-17T01:12:58.877Z,264.70
2019-02-17T01:13:59.156Z,264.08
2019-02-17T01:14:59.351Z,265.05
2019-02-17T01:15:59.635Z,264.80
2019-02-17T01:16:59.826Z,263.73
2019-02-17T01:18:00.039Z,264.54
2019-02-17T01:19:00.355Z,264.98
2019-02-17T01:20:00.524Z,263.63
2019-02-17T01:21:00.760Z,265.55
2019-02-17T01:22:01.014Z,265.36
2019-02-17T01:23:01.235Z,264.09
2019-02-17T01:24:01.521Z,264.40
2019-02-17T01:25:01.698Z,264.66
2019-02-17T01:26:01.936Z,265.19
2019-02-17T01:27:02.197Z,264.38
2019-02-17T01:28:02.433Z,265.04
2019-02-17T01:29:02.765Z,264.43
2019-02-17T01:30:02.898Z,263.93
2019-02-17T01:31:03.142Z,264.57
2019-02-17T01:32:03.418Z,263.70
2019-02-17T01:33:03.695Z,264.95
2019-02-17T01:34:03.883Z,265.78
2019-02-17T01:35:04.088Z,264.57
2019-02-17T01:36:04.337Z,265.98
2019-02-17T01:37:04.588Z,264.48
2019-02-17T01:38:04.791Z,264.47
2019-02-17T01:39:05.129Z,265.10
2019-02-17T01:40:05.298Z,263.58
2019-02-17T01:41:05.633Z,264.99
2019-02-17T01:42:05.772Z,263.87
2019-02-17T01:43:05.986Z,264.58
2019-02-17T01:44:06.565Z,264.61
2019-02-17T01:45:06.473Z,264.41
2019-02-17T01:46:06.712Z,265.77
2019-02-17T01:47:06.958Z,265.67
2019-02-17T01:48:07.186Z,265.29
2019-02-17T01:49:07.527Z,264.63
2019-02-17T01:50:07.642Z,265.49
2019-02-17T01:51:07.871Z,264.66
2019-02-17T01:52:08.140Z,264.75
2019-02-17T01:53:08.353Z,264.55
2019-02-17T01:54:08.666Z,265.04
2019-02-17T01:55:08.842Z,264.18
2019-02-17T01:56:09.075Z,265.04
2019-02-17T01:57:09.351Z,264.05
2019-02-17T01:58:09.522Z,265.22
2019-02-17T01:59:09.830Z,264.51
2019-02-17T02:00:10.285Z,265.63
2019-02-17T02:01:10.258Z,263.76
2019-02-17T02:02:10.737Z,264.37
2019-02-17T02:03:10.732Z,264.98
2019-02-17T02:04:10.964Z,263.47
2019-02-17T02:05:11.251Z,215.27
2019-02-17T02:06:11.466Z,264.18
2019-02-17T02:07:11.694Z,264.83
2019-02-17T02:08:11.921Z,263.68
2019-02-17T02:09:12.178Z,265.41
2019-02-17T02:10:12.402Z,264.77
2019-02-17T02:11:12.626Z,265.07
2019-02-17T02:12:12.865Z,264.00
2019-02-17T02:13:13.130Z,266.00
2019-02-17T02:14:13.461Z,264.23
2019-02-17T02:15:13.629Z,264.74
2019-02-17T02:16:13.849Z,264.92
2019-02-17T02:17:14.089Z,264.75
2019-02-17T02:18:14.311Z,265.33
2019-02-17T02:19:14.577Z,264.67
2019-02-17T02:20:14.836Z,265.46
2019-02-17T02:21:15.038Z,264.61
2019-02-17T02:22:15.425Z,265.18
2019-02-17T02:23:15.516Z,264.74
2019-02-17T02:24:15.745Z,264.33
2019-02-17T02:25:16.019Z,264.71
2019-02-17T02:26:16.234Z,264.63
2019-02-17T02:27:16.473Z,265.20
2019-02-17T02:28:16.713Z,264.19
2019-02-17T02:29:16.928Z,265.20
2019-02-17T02:30:17.259Z,264.49
2019-02-17T02:31:17.397Z,264.37
2019-02-17T02:32:17.713Z,265.45
2019-02-17T02:33:17.865Z,266.00
2019-02-17T02:34:18.090Z,265.42
2019-02-17T02:35:18.348Z,265.46
2019-02-17T02:36:18.553Z,264.86
2019-02-17T02:37:18.821Z,265.97
2019-02-17T02:38:19.100Z,266.65
2019-02-17T02:39:19.282Z,265.44
2019-02-17T02:40:19.562Z,264.96
2019-02-17T02:41:19.754Z,265.00
2019-02-17T02:42:19.992Z,264.29
2019-02-17T02:43:20.231Z,265.52
2019-02-17T02:44:20.483Z,265.11
2019-02-17T02:45:20.788Z,264.66
2019-02-17T02:46:20.994Z,265.08
2019-02-17T02:47:21.280Z,265.95
2019-02-17T02:48:21.441Z,265.01
2019-02-17T02:49:21.677Z,264.76
2019-02-17T02:50:21.957Z,264.93
2019-02-17T02:51:22.151Z,265.58
2019-02-17T02:52:22.408Z,265.38
2019-02-17T02:53:22.611Z,264.73
2019-02-17T02:54:22.877Z,264.83
2019-02-17T02:55:23.279Z,265.66
2019-02-17T02:56:23.350Z,265.16
2019-02-17T02:57:23.607Z,265.22
2019-02-17T02:58:23.809Z,265.27
2019-02-17T02:59:24.058Z,264.52
2019-02-17T03:00:24.322Z,265.74
2019-02-17T03:01:24.531Z,264.90
2019-02-17T03:02:24.787Z,264.92
2019-02-17T03:03:25.110Z,265.34
2019-02-17T03:04:25.235Z,266.51
2019-02-17T03:05:25.528Z,265.54
2019-02-17T03:06:25.702Z,264.99
2019-02-17T03:07:25.969Z,263.87
2019-02-17T03:08:26.188Z,265.53
2019-02-17T03:09:26.410Z,266.23
2019-02-17T03:10:26.707Z,264.50
2019-02-17T03:11:26.952Z,265.10
2019-02-17T03:12:27.136Z,264.46
2019-02-17T03:13:27.383Z,265.83
2019-02-17T03:14:27.620Z,266.10
2019-02-17T03:15:27.884Z,265.82
2019-02-17T03:16:28.097Z,264.92
2019-02-17T03:17:28.347Z,264.74
2019-02-17T03:18:28.594Z,264.61
2019-02-17T03:19:28.873Z,265.63
2019-02-17T03:20:29.113Z,265.11
2019-02-17T03:21:29.287Z,264.89
2019-02-17T03:22:29.548Z,265.26
2019-02-17T03:23:29.803Z,266.19
2019-02-17T03:24:30.037Z,265.96
2019-02-17T03:25:30.313Z,264.70
2019-02-17T03:26:30.510Z,264.20
2019-02-17T03:27:30.772Z,264.92
2019-02-17T03:28:31.109Z,265.32
2019-02-17T03:29:31.226Z,265.86
2019-02-17T03:30:31.489Z,265.44
2019-02-17T03:31:31.718Z,265.24
2019-02-17T03:32:31.926Z,264.27
2019-02-17T03:33:32.194Z,264.65
2019-02-17T03:34:32.415Z,265.70
2019-02-17T03:35:32.669Z,264.41
2019-02-17T03:36:33.021Z,264.76
2019-02-17T03:37:33.102Z,264.66
2019-02-17T03:38:33.372Z,264.40
2019-02-17T03:39:33.593Z,265.14
2019-02-17T03:40:33.875Z,264.84
2019-02-17T03:41:34.308Z,265.42
2019-02-17T03:42:34.313Z,265.06
2019-02-17T03:43:34.555Z,264.96
2019-02-17T03:44:34.834Z,264.64
2019-02-17T03:45:35.034Z,265.05
2019-02-17T03:46:35.262Z,264.55
2019-02-17T03:47:35.490Z,264.64
2019-02-17T03:48:35.745Z,264.93
2019-02-17T03:49:35.950Z,265.33
2019-02-17T03:50:36.231Z,265.20
2019-02-17T03:51:36.451Z,265.04
2019-02-17T03:52:36.733Z,265.52
2019-02-17T03:53:36.921Z,265.47
2019-02-17T03:54:37.127Z,266.08
2019-02-17T03:55:37.388Z,265.30
2019-02-17T03:56:37.625Z,264.66
2019-02-17T03:57:37.852Z,264.92
2019-02-17T03:58:38.111Z,265.31
2019-02-17T03:59:38.331Z,265.35
2019-02-17T04:00:38.621Z,264.46
2019-02-17T04:01:38.850Z,266.13
2019-02-17T04:02:39.062Z,265.23
2019-02-17T04:03:39.303Z,265.97
2019-02-17T04:04:39.519Z,264.41
2019-02-17T04:05:39.772Z,264.98
2019-02-17T04:06:39.992Z,265.91
2019-02-17T04:07:40.239Z,266.41
2019-02-17T04:08:40.506Z,265.22
2019-02-17T04:09:40.817Z,264.54
2019-02-17T04:10:40.945Z,265.27
2019-02-17T04:11:41.178Z,265.32
2019-02-17T04:12:41.443Z,266.52
2019-02-17T04:13:41.684Z,264.62
2019-02-17T04:14:41.908Z,265.91
2019-02-17T04:15:42.166Z,266.33
2019-02-17T04:16:42.368Z,264.78
2019-02-17T04:17:42.664Z,265.36
2019-02-17T04:18:42.872Z,266.30
2019-02-17T04:19:43.089Z,265.72
2019-02-17T04:20:43.342Z,266.85
2019-02-17T04:21:43.557Z,266.06
2019-02-17T04:22:43.814Z,265.58
2019-02-17T04:23:44.072Z,265.94
2019-02-17T04:24:44.283Z,265.93
2019-02-17T04:25:44.589Z,265.34
2019-02-17T04:26:44.749Z,265.17
2019-02-17T04:27:45.002Z,266.38
2019-02-17T04:28:45.278Z,265.39
2019-02-17T04:29:45.494Z,265.57
2019-02-17T04:30:45.738Z,266.21
2019-02-17T04:31:46.022Z,264.87
2019-02-17T04:32:46.204Z,266.92
2019-02-17T04:33:46.578Z,264.97
2019-02-17T04:34:46.663Z,266.18
2019-02-17T04:35:46.911Z,265.55
2019-02-17T04:36:47.174Z,264.11
2019-02-17T04:37:47.379Z,265.64
2019-02-17T04:38:47.663Z,265.31
2019-02-17T04:39:47.853Z,266.16
2019-02-17T04:40:48.100Z,264.29
2019-02-17T04:41:48.398Z,265.53
2019-02-17T04:42:48.634Z,266.16
2019-02-17T04:43:48.839Z,265.88
2019-02-17T04:44:49.039Z,265.94
2019-02-17T04:45:49.289Z,265.53
2019-02-17T04:46:49.549Z,265.86
2019-02-17T04:47:49.769Z,264.42
2019-02-17T04:48:50.011Z,265.13
2019-02-17T04:49:50.249Z,265.95
2019-02-17T04:50:50.630Z,266.40
2019-02-17T04:51:50.754Z,265.89
2019-02-17T04:52:51.110Z,264.92
2019-02-17T04:53:51.229Z,265.69
2019-02-17T04:54:51.431Z,267.08
2019-02-17T04:55:51.667Z,266.04
2019-02-17T04:56:51.942Z,265.18
2019-02-17T04:57:52.176Z,265.57
2019-02-17T04:58:52.530Z,265.75
2019-02-17T04:59:52.604Z,265.10
2019-02-17T05:00:52.854Z,265.31
2019-02-17T05:01:53.124Z,265.66
2019-02-17T05:02:53.355Z,265.35
2019-02-17T05:03:53.599Z,265.66
2019-02-17T05:04:53.817Z,266.47
2019-02-17T05:05:54.053Z,264.96
2019-02-17T05:06:54.342Z,264.95
2019-02-17T05:07:54.532Z,265.93
2019-02-17T05:08:54.775Z,265.58
2019-02-17T05:09:54.996Z,266.23
2019-02-17T05:10:55.235Z,266.25
2019-02-17T05:11:55.488Z,266.20
2019-02-17T05:12:55.708Z,266.31
2019-02-17T05:13:55.968Z,265.74
2019-02-17T05:14:56.256Z,266.70
2019-02-17T05:15:56.413Z,264.85
2019-02-17T05:16:56.684Z,266.50
2019-02-17T05:17:56.915Z,265.50
2019-02-17T05:18:57.149Z,265.31
2019-02-17T05:19:57.401Z,266.57
2019-02-17T05:20:57.861Z,264.83
2019-02-17T05:21:57.874Z,265.95
2019-02-17T05:22:58.105Z,266.38
2019-02-17T05:23:58.410Z,264.91
2019-02-17T05:24:58.601Z,265.29
2019-02-17T05:25:58.834Z,266.04
2019-02-17T05:26:59.086Z,264.78
2019-02-17T05:27:59.316Z,264.55
2019-02-17T05:28:59.552Z,216.10
2019-02-17T05:29:59.764Z,216.16
2019-02-17T05:31:00.023Z,216.13
2019-02-17T05:32:00.412Z,216.14
2019-02-17T05:33:00.507Z,216.15
2019-02-17T05:34:00.718Z,216.19
2019-02-17T05:35:00.981Z,216.14
2019-02-17T05:36:01.233Z,216.19
2019-02-17T05:37:01.490Z,216.26
2019-02-17T05:38:01.736Z,216.20
2019-02-17T05:39:01.943Z,216.27
2019-02-17T05:40:02.246Z,216.27
2019-02-17T05:41:02.411Z,216.26
2019-02-17T05:42:02.646Z,216.26
2019-02-17T05:43:02.896Z,216.34
2019-02-17T05:44:03.122Z,216.26
2019-02-17T05:45:03.375Z,216.26
2019-02-17T05:46:03.581Z,216.30
2019-02-17T05:47:03.853Z,216.33
2019-02-17T05:48:04.130Z,216.33
2019-02-17T05:49:04.290Z,216.34
2019-02-17T05:50:04.562Z,216.41
2019-02-17T05:51:04.773Z,216.37
2019-02-17T05:52:05.013Z,216.34
2019-02-17T05:53:05.251Z,216.33
2019-02-17T05:54:05.478Z,266.14
2019-02-17T05:55:05.740Z,265.49
2019-02-17T05:56:06.025Z,266.78
2019-02-17T05:57:06.229Z,266.37
2019-02-17T05:58:06.463Z,265.17
2019-02-17T05:59:06.691Z,266.43
2019-02-17T06:00:06.953Z,265.34
2019-02-17T06:01:07.399Z,266.46
2019-02-17T06:02:07.431Z,265.85
2019-02-17T06:03:07.642Z,266.71
2019-02-17T06:04:07.886Z,266.17
2019-02-17T06:05:08.267Z,266.60
2019-02-17T06:06:08.363Z,267.03
2019-02-17T06:07:08.619Z,266.15
2019-02-17T06:08:08.831Z,265.42
2019-02-17T06:09:09.076Z,266.86
2019-02-17T06:10:09.329Z,266.25
2019-02-17T06:11:09.663Z,265.88
2019-02-17T06:12:09.799Z,266.74
2019-02-17T06:13:10.288Z,265.98
2019-02-17T06:14:10.258Z,266.25
2019-02-17T06:15:10.535Z,266.89
2019-02-17T06:16:10.739Z,266.16
2019-02-17T06:17:10.992Z,266.28
2019-02-17T06:18:11.220Z,266.23
2019-02-17T06:19:11.432Z,266.80
2019-02-17T06:20:11.717Z,266.13
2019-02-17T06:21:12.001Z,266.98
2019-02-17T06:22:12.179Z,216.48
2019-02-17T06:23:12.403Z,216.33
2019-02-17T06:24:12.628Z,216.34
2019-02-17T06:25:12.898Z,216.41
2019-02-17T06:26:13.116Z,216.39
2019-02-17T06:27:13.375Z,216.38
2019-02-17T06:28:13.600Z,216.38
2019-02-17T06:29:13.859Z,216.34
2019-02-17T06:30:14.050Z,216.36
2019-02-17T06:31:14.862Z,216.34
2019-02-17T06:32:14.527Z,216.34
2019-02-17T06:33:14.778Z,216.30
2019-02-17T06:34:15.014Z,216.36
2019-02-17T06:35:15.268Z,216.24
2019-02-17T06:36:15.488Z,216.24
2019-02-17T06:37:15.743Z,216.22
2019-02-17T06:38:16.079Z,216.24
2019-02-17T06:39:16.224Z,216.15
2019-02-17T06:40:16.476Z,216.24
2019-02-17T06:41:16.690Z,216.15
2019-02-17T06:42:16.918Z,216.13
2019-02-17T06:43:17.196Z,216.10
2019-02-17T06:44:17.406Z,216.08
2019-02-17T06:45:19.526Z,216.10
2019-02-17T06:46:17.991Z,216.01
2019-02-17T06:47:18.105Z,216.07
2019-02-17T06:48:18.393Z,215.99
2019-02-17T06:49:18.594Z,216.03
2019-02-17T06:50:18.860Z,215.96
2019-02-17T06:51:19.062Z,216.03
2019-02-17T06:52:19.305Z,216.04
2019-02-17T06:53:19.553Z,216.03
2019-02-17T06:54:19.880Z,216.10
2019-02-17T06:55:20.037Z,216.12
2019-02-17T06:56:20.252Z,215.99
2019-02-17T06:57:20.487Z,216.01
2019-02-17T06:58:20.728Z,216.06
2019-02-17T06:59:21.213Z,215.94
2019-02-17T07:00:21.219Z,215.94
2019-02-17T07:01:24.574Z,215.88
2019-02-17T07:02:21.736Z,215.98
2019-02-17T07:03:21.917Z,215.88
2019-02-17T07:04:22.158Z,215.94
2019-02-17T07:05:22.437Z,215.96
2019-02-17T07:06:22.641Z,215.90
2019-02-17T07:07:22.849Z,215.80
2019-02-17T07:08:23.126Z,215.83
2019-02-17T07:09:23.325Z,215.79
2019-02-17T07:10:23.637Z,215.76
2019-02-17T07:11:23.793Z,215.81
2019-02-17T07:12:24.064Z,215.80
2019-02-17T07:13:24.294Z,215.70
2019-02-17T07:14:24.520Z,265.37
2019-02-17T07:15:24.786Z,265.26
2019-02-17T07:16:24.975Z,264.58
2019-02-17T07:17:25.231Z,265.34
2019-02-17T07:18:25.498Z,264.44
2019-02-17T07:19:25.837Z,264.31
2019-02-17T07:20:25.962Z,265.79
2019-02-17T07:21:26.168Z,264.33
2019-02-17T07:22:26.417Z,264.09
2019-02-17T07:23:26.670Z,263.64
2019-02-17T07:24:26.901Z,264.17
2019-02-17T07:25:30.081Z,263.82
2019-02-17T07:26:27.371Z,264.21
2019-02-17T07:27:27.717Z,264.84
2019-02-17T07:28:27.856Z,265.35
2019-02-17T07:29:28.094Z,265.29
2019-02-17T07:30:28.334Z,264.54
2019-02-17T07:31:34.663Z,265.59
2019-02-17T07:32:29.782Z,264.31
2019-02-17T07:33:29.059Z,264.99
2019-02-17T07:34:29.286Z,265.64
2019-02-17T07:35:29.563Z,265.12
2019-02-17T07:36:29.737Z,265.32
2019-02-17T07:37:33.269Z,264.31
2019-02-17T07:38:30.234Z,264.84
2019-02-17T07:39:30.464Z,264.31
2019-02-17T07:40:30.694Z,263.11
2019-02-17T07:41:30.947Z,263.18
2019-02-17T07:42:31.193Z,264.33
2019-02-17T07:43:31.491Z,265.73
2019-02-17T07:44:31.656Z,263.99
2019-02-17T07:45:31.888Z,263.28
2019-02-17T07:46:32.145Z,263.51
2019-02-17T07:47:32.377Z,265.43
2019-02-17T07:48:32.632Z,263.18
2019-02-17T07:49:32.835Z,264.22
2019-02-17T07:50:33.093Z,264.63
2019-02-17T07:51:33.399Z,264.34
2019-02-17T07:52:34.275Z,264.27
2019-02-17T07:53:33.837Z,264.36
2019-02-17T07:54:34.069Z,265.28
2019-02-17T07:55:34.303Z,263.54
2019-02-17T07:56:34.571Z,263.62
2019-02-17T07:57:34.791Z,264.23
2019-02-17T07:58:35.045Z,262.62
2019-02-17T07:59:35.320Z,263.48
2019-02-17T08:00:35.584Z,262.87
2019-02-17T08:01:44.733Z,262.45
2019-02-17T08:02:36.975Z,263.55
2019-02-17T08:03:36.232Z,263.76
2019-02-17T08:04:36.461Z,263.03
2019-02-17T08:05:36.675Z,262.37
2019-02-17T08:06:36.944Z,262.67
2019-02-17T08:07:37.177Z,262.71
2019-02-17T08:08:37.561Z,262.93
2019-02-17T08:09:37.758Z,263.85
2019-02-17T08:10:37.916Z,263.51
2019-02-17T08:11:38.189Z,263.91
2019-02-17T08:12:38.408Z,263.13
2019-02-17T08:13:38.662Z,263.26
2019-02-17T08:14:38.894Z,263.04
2019-02-17T08:15:39.121Z,262.64
2019-02-17T08:16:39.443Z,262.47
2019-02-17T08:17:39.582Z,262.24
2019-02-17T08:18:39.843Z,262.55
2019-02-17T08:19:40.068Z,213.48
2019-02-17T08:20:40.304Z,213.45
2019-02-17T08:21:40.556Z,213.46
2019-02-17T08:22:40.759Z,213.37
2019-02-17T08:23:41.032Z,213.41
2019-02-17T08:24:41.331Z,213.37
2019-02-17T08:25:41.489Z,213.36
2019-02-17T08:26:41.743Z,213.38
2019-02-17T08:27:41.963Z,213.32
2019-02-17T08:28:42.536Z,213.30
2019-02-17T08:29:42.492Z,213.21
2019-02-17T08:30:42.696Z,213.20
2019-02-17T08:31:42.950Z,213.15
2019-02-17T08:32:44.026Z,213.17
2019-02-17T08:33:43.495Z,213.11
2019-02-17T08:34:43.726Z,213.04
2019-02-17T08:35:44.171Z,213.15
2019-02-17T08:36:44.195Z,213.03
2019-02-17T08:37:44.445Z,212.95
2019-02-17T08:38:44.670Z,213.05
2019-02-17T08:39:44.918Z,213.01
2019-02-17T08:40:45.125Z,212.98
2019-02-17T08:41:45.532Z,212.95
2019-02-17T08:42:45.598Z,212.89
2019-02-17T08:43:45.842Z,212.87
2019-02-17T08:44:46.117Z,212.82
2019-02-17T08:45:46.312Z,212.71
2019-02-17T08:46:46.592Z,212.62
2019-02-17T08:47:46.807Z,212.58
2019-02-17T08:48:47.045Z,212.61
2019-02-17T08:49:47.978Z,212.53
2019-02-17T08:50:47.536Z,212.43
2019-02-17T08:51:47.990Z,212.46
2019-02-17T08:52:48.109Z,212.35
2019-02-17T08:53:48.250Z,212.31
2019-02-17T08:54:49.126Z,212.28
2019-02-17T08:55:48.712Z,212.35
2019-02-17T08:56:48.969Z,212.23
2019-02-17T08:57:49.242Z,212.20
2019-02-17T08:58:49.559Z,212.18
2019-02-17T08:59:49.717Z,212.15
2019-02-17T09:00:49.908Z,212.11
2019-02-17T09:01:50.148Z,212.05
2019-02-17T09:02:50.369Z,212.02
2019-02-17T09:03:50.620Z,211.99
2019-02-17T09:04:50.890Z,211.97
2019-02-17T09:05:51.170Z,211.89
2019-02-17T09:06:51.348Z,211.83
2019-02-17T09:07:51.558Z,211.88
2019-02-17T09:08:51.798Z,211.73
2019-02-17T09:09:52.079Z,211.69
2019-02-17T09:10:52.298Z,211.70
2019-02-17T09:11:52.562Z,211.69
2019-02-17T09:12:52.777Z,211.65
2019-02-17T09:13:53.019Z,211.56
2019-02-17T09:14:53.386Z,211.60
2019-02-17T09:15:53.517Z,211.55
2019-02-17T09:16:53.834Z,211.55
2019-02-17T09:17:53.966Z,211.48
2019-02-17T09:18:54.177Z,211.47
2019-02-17T09:19:54.455Z,211.41
2019-02-17T09:20:54.684Z,211.31
2019-02-17T09:21:55.066Z,211.28
2019-02-17T09:22:55.486Z,211.27
2019-02-17T09:23:55.355Z,211.25
2019-02-17T09:24:55.626Z,211.17
2019-02-17T09:25:55.846Z,211.16
2019-02-17T09:26:56.115Z,211.19
2019-02-17T09:27:56.329Z,211.16
2019-02-17T09:28:56.570Z,211.16
2019-02-17T09:29:56.807Z,211.19
2019-02-17T09:30:57.132Z,211.16
2019-02-17T09:31:59.308Z,211.12
2019-02-17T09:32:57.522Z,211.13
2019-02-17T09:33:57.759Z,211.06
2019-02-17T09:34:58.015Z,211.02
2019-02-17T09:35:58.223Z,211.01
2019-02-17T09:36:58.489Z,211.01
2019-02-17T09:37:58.716Z,210.96
2019-02-17T09:38:58.981Z,210.94
2019-02-17T09:39:59.182Z,210.88
2019-02-17T09:40:59.401Z,210.90
2019-02-17T09:41:59.663Z,210.91
2019-02-17T09:42:59.894Z,210.89
2019-02-17T09:44:00.137Z,210.87
2019-02-17T09:45:00.387Z,210.85
2019-02-17T09:46:00.611Z,210.84
2019-02-17T09:47:00.887Z,210.80
2019-02-17T09:48:01.128Z,210.70
2019-02-17T09:49:01.332Z,210.71
2019-02-17T09:50:01.584Z,210.62
2019-02-17T09:51:01.815Z,210.60
2019-02-17T09:52:02.055Z,210.54
2019-02-17T09:53:02.261Z,210.54
2019-02-17T09:54:02.514Z,210.51
2019-02-17T09:55:03.634Z,210.48
2019-02-17T09:56:03.131Z,210.48
2019-02-17T09:57:03.235Z,210.46
2019-02-17T09:58:03.464Z,210.38
2019-02-17T09:59:03.700Z,210.38
2019-02-17T10:00:03.953Z,210.46
2019-02-17T10:01:04.177Z,210.37
2019-02-17T10:02:04.417Z,210.31
2019-02-17T10:03:04.646Z,210.29
2019-02-17T10:04:05.020Z,210.26
2019-02-17T10:05:05.166Z,210.21
2019-02-17T10:06:05.401Z,210.18
2019-02-17T10:07:05.630Z,210.14
2019-02-17T10:08:05.862Z,210.12
2019-02-17T10:09:06.116Z,210.10
2019-02-17T10:10:06.386Z,210.09
2019-02-17T10:11:06.637Z,210.04
2019-02-17T10:12:06.925Z,210.04
2019-02-17T10:13:07.307Z,210.05
2019-02-17T10:14:07.292Z,209.97
2019-02-17T10:15:07.562Z,209.96
2019-02-17T10:16:07.834Z,209.93
2019-02-17T10:17:08.060Z,209.91
2019-02-17T10:18:08.280Z,209.85
2019-02-17T10:19:08.498Z,209.87
2019-02-17T10:20:08.777Z,209.80
2019-02-17T10:21:08.977Z,209.78
2019-02-17T10:22:09.194Z,209.69
2019-02-17T10:23:09.453Z,209.64
2019-02-17T10:24:09.679Z,209.66
2019-02-17T10:25:09.935Z,209.64
2019-02-17T10:26:10.173Z,209.56
2019-02-17T10:27:10.383Z,209.55
2019-02-17T10:28:10.701Z,209.50
2019-02-17T10:29:10.929Z,209.41
2019-02-17T10:30:11.135Z,209.46
2019-02-17T10:31:11.828Z,209.43
2019-02-17T10:32:11.593Z,209.46
2019-02-17T10:33:11.849Z,209.40
2019-02-17T10:34:12.066Z,209.41
2019-02-17T10:35:12.326Z,209.35
2019-02-17T10:36:12.583Z,209.30
2019-02-17T10:37:12.864Z,209.32
2019-02-17T10:38:13.031Z,209.29
2019-02-17T10:39:13.252Z,209.21
2019-02-17T10:40:13.500Z,209.19
2019-02-17T10:41:13.745Z,209.19
2019-02-17T10:42:13.948Z,209.15
2019-02-17T10:43:14.224Z,209.13
2019-02-17T10:44:14.444Z,209.13
2019-02-17T10:45:14.794Z,209.13
2019-02-17T10:46:14.947Z,209.06
2019-02-17T10:47:15.129Z,209.11
2019-02-17T10:48:15.401Z,209.13
2019-02-17T10:49:15.621Z,209.09
2019-02-17T10:50:15.866Z,209.03
2019-02-17T10:51:16.149Z,209.06
2019-02-17T10:52:16.331Z,209.06
2019-02-17T10:53:16.600Z,209.08
2019-02-17T10:54:16.791Z,208.99
2019-02-17T10:55:17.051Z,209.07
2019-02-17T10:56:17.294Z,209.01
2019-02-17T10:57:17.507Z,209.03
2019-02-17T10:58:17.770Z,208.94
2019-02-17T10:59:17.960Z,208.94
2019-02-17T11:00:18.216Z,208.89
2019-02-17T11:01:18.550Z,208.86
2019-02-17T11:02:18.711Z,208.86
2019-02-17T11:03:18.987Z,208.80
2019-02-17T11:04:19.185Z,208.85
2019-02-17T11:05:19.413Z,208.81
2019-02-17T11:06:19.680Z,208.75
2019-02-17T11:07:19.918Z,208.80
2019-02-17T11:08:20.178Z,208.77
2019-02-17T11:09:20.417Z,208.75
2019-02-17T11:10:20.739Z,208.75
2019-02-17T11:11:20.887Z,208.73
2019-02-17T11:12:23.448Z,208.70
2019-02-17T11:13:21.374Z,208.71
2019-02-17T11:14:21.594Z,208.65
2019-02-17T11:15:21.831Z,208.70
2019-02-17T11:16:22.060Z,208.68
2019-02-17T11:17:22.314Z,208.64
2019-02-17T11:18:22.680Z,208.68
2019-02-17T11:19:22.781Z,208.65
2019-02-17T11:20:23.008Z,208.65
2019-02-17T11:21:28.048Z,208.62
2019-02-17T11:22:23.558Z,208.59
2019-02-17T11:23:23.757Z,208.57
2019-02-17T11:24:29.068Z,208.51
2019-02-17T11:25:24.219Z,208.47
2019-02-17T11:26:24.550Z,208.49
2019-02-17T11:27:24.680Z,208.49
2019-02-17T11:28:24.936Z,208.52
2019-02-17T11:29:25.157Z,208.46
2019-02-17T11:30:25.394Z,208.45
2019-02-17T11:31:25.650Z,208.49
2019-02-17T11:32:25.882Z,208.43
2019-02-17T11:33:26.164Z,208.45
2019-02-17T11:34:26.429Z,208.43
2019-02-17T11:35:26.593Z,208.43
2019-02-17T11:36:26.857Z,208.37
2019-02-17T11:37:27.086Z,208.41
2019-02-17T11:38:27.317Z,208.37
2019-02-17T11:39:27.552Z,256.50
2019-02-17T11:40:27.804Z,257.64
2019-02-17T11:41:28.062Z,257.73
2019-02-17T11:42:28.393Z,255.58
2019-02-17T11:43:28.537Z,257.54
2019-02-17T11:44:28.755Z,257.88
2019-02-17T11:45:29.007Z,257.44
2019-02-17T11:46:29.262Z,255.91
2019-02-17T11:47:29.491Z,255.94
2019-02-17T11:48:29.736Z,255.37
2019-02-17T11:49:29.955Z,255.40
2019-02-17T11:50:30.219Z,256.76
2019-02-17T11:51:30.544Z,256.98
2019-02-17T11:52:30.912Z,256.14
2019-02-17T11:53:30.921Z,256.93
2019-02-17T11:54:31.150Z,255.62
2019-02-17T11:55:31.380Z,256.11
2019-02-17T11:56:31.654Z,256.43
2019-02-17T11:57:31.882Z,256.50
2019-02-17T11:58:32.140Z,256.54
2019-02-17T11:59:32.483Z,256.86
2019-02-17T12:00:32.571Z,256.72
2019-02-17T12:01:32.839Z,257.59
2019-02-17T12:02:33.074Z,254.77
2019-02-17T12:03:33.319Z,257.77
2019-02-17T12:04:33.547Z,256.86
2019-02-17T12:05:33.782Z,255.73
2019-02-17T12:06:34.025Z,256.99
2019-02-17T12:07:34.359Z,255.02
2019-02-17T12:08:34.518Z,256.87
2019-02-17T12:09:34.730Z,257.21
2019-02-17T12:10:34.978Z,256.69
2019-02-17T12:11:35.208Z,255.60
2019-02-17T12:12:35.460Z,257.02
2019-02-17T12:13:35.798Z,256.32
2019-02-17T12:14:35.945Z,255.74
2019-02-17T12:15:36.226Z,256.80
2019-02-17T12:16:37.183Z,256.71
2019-02-17T12:17:36.641Z,256.57
2019-02-17T12:18:36.905Z,256.90
2019-02-17T12:19:37.140Z,256.72
2019-02-17T12:20:37.360Z,256.96
2019-02-17T12:21:37.624Z,255.62
2019-02-17T12:22:37.858Z,255.71
2019-02-17T12:23:38.150Z,256.34
2019-02-17T12:24:38.342Z,255.73
2019-02-17T12:25:38.561Z,256.25
2019-02-17T12:26:38.827Z,256.14
2019-02-17T12:27:39.092Z,255.15
2019-02-17T12:28:39.281Z,255.64
2019-02-17T12:29:39.504Z,256.86
2019-02-17T12:30:39.748Z,256.96
2019-02-17T12:31:40.022Z,255.61